Purki — 9HA2386 — position and weather

sailwx.info

Track history (hours):
 
Tides and Currents Weather Stations Pressure Air Temp Water Temp Dewpoint Dewpoint Depression Visibility Wind Speed Wind Dir Waves Ship Positions

Purki

Last reported at 2016-Apr-28 04:33 UTC. Time now 2016-Apr-29 23:36 UTC.
Position N 39°26' W 000°18'.

Length 146 m; draft 8.7 m.

Type: Cargo ship. MMSI: 248495000.

Date/timePositionNaut miles runAvg speedWind from/ knotsBaromVisibWave heightAir tempDewpointWater temp
2016-Apr-28 04:33N 39°26' W 000°18'2 1.6
2016-Apr-28 03:33N 39°27' W 000°19'0 0.0
2016-Apr-28 02:33N 39°27' W 000°19'0 0.0
2016-Apr-28 01:33N 39°27' W 000°19'0 0.0
2016-Apr-28 00:33N 39°27' W 000°19'0 0.0
2016-Apr-27 23:33N 39°27' W 000°19'0 0.0
2016-Apr-27 22:33N 39°27' W 000°19'0 0.0
2016-Apr-27 21:33N 39°27' W 000°19'0 0.0
2016-Apr-27 20:33N 39°27' W 000°19'0 0.0
2016-Apr-27 19:33N 39°27' W 000°19'0 0.1
2016-Apr-27 18:33N 39°27' W 000°19'4 4.4
2016-Apr-27 17:32N 39°24' W 000°16'0 0.0
2016-Apr-27 09:07N 39°23' W 000°16'6 9.2
2016-Apr-27 08:29N 39°25' W 000°08'1212.8
2016-Apr-27 07:33N 39°35' W 000°00'4312.5
2016-Apr-27 04:05N 40°06' E 000°39'712.3
2016-Apr-27 03:33N 40°10' E 000°46'1312.5
2016-Apr-27 02:33N 40°17' E 000°59'1212.3
2016-Apr-27 01:33N 40°25' E 001°12'1312.3
2016-Apr-27 00:29N 40°33' E 001°26'1612.3
2016-Apr-26 23:13N 40°44' E 001°40'3512.6
2016-Apr-26 20:29N 41°12' E 002°08'7 7.5
2016-Apr-26 19:33N 41°18' E 002°09'0 0.1
2016-Apr-26 17:19N 41°18' E 002°09'0 0.0
2016-Apr-26 15:29N 41°18' E 002°09'3 3.5
2016-Apr-26 14:33N 41°21' E 002°10'0 0.0
2016-Apr-26 06:21N 41°21' E 002°10'23710.3
2016-Apr-25 07:22N 43°08' E 006°56'1213.2
2016-Apr-25 06:29N 43°16' E 007°09'1212.8
2016-Apr-25 05:30N 43°23' E 007°23'1212.6
2016-Apr-25 04:33N 43°30' E 007°36'4113.7
2016-Apr-25 01:31N 43°57' E 008°20'1414.2
2016-Apr-25 00:33N 44°05' E 008°35'1414.1
2016-Apr-24 23:33N 44°14' E 008°50'1010.2
2016-Apr-24 22:33N 44°24' E 008°55'1 1.4
2016-Apr-24 21:33N 44°24' E 008°53'0 0.0
2016-Apr-24 20:33N 44°24' E 008°53'0 0.0
2016-Apr-24 19:33N 44°24' E 008°53'0 0.0
2016-Apr-24 18:33N 44°24' E 008°53'0 0.0
2016-Apr-24 17:33N 44°24' E 008°53'0 0.0
2016-Apr-24 16:33N 44°24' E 008°53'0 0.0
2016-Apr-24 15:33N 44°24' E 008°53'0 0.0
2016-Apr-24 14:33N 44°24' E 008°53'0 0.0
2016-Apr-24 13:33N 44°24' E 008°53'0 0.0
2016-Apr-24 12:33N 44°24' E 008°53'0 0.0
2016-Apr-24 11:33N 44°24' E 008°53'0 0.0
2016-Apr-24 10:33N 44°24' E 008°53'0 0.0
2016-Apr-24 09:33N 44°24' E 008°53'0 0.0
2016-Apr-24 08:33N 44°24' E 008°53'0 0.0
2016-Apr-24 07:33N 44°24' E 008°53'0 0.0
2016-Apr-24 06:33N 44°24' E 008°53'0 0.0
2016-Apr-24 05:33N 44°24' E 008°53'0 0.0
2016-Apr-24 04:33N 44°24' E 008°53'0 0.0
2016-Apr-24 03:33N 44°24' E 008°53'0 0.0
2016-Apr-24 02:30N 44°24' E 008°53'0 0.0
2016-Apr-24 01:30N 44°24' E 008°53'0 0.0
2016-Apr-24 00:33N 44°24' E 008°53'0 0.0
2016-Apr-23 23:33N 44°24' E 008°53'0 0.0
2016-Apr-23 22:33N 44°24' E 008°53'0 0.0
2016-Apr-23 21:33N 44°24' E 008°53'0 0.0
2016-Apr-23 20:30N 44°24' E 008°53'0 0.0
2016-Apr-23 19:30N 44°24' E 008°53'0 0.0
2016-Apr-23 18:33N 44°24' E 008°53'0 0.0
2016-Apr-23 17:33N 44°24' E 008°53'0 0.0
2016-Apr-23 16:33N 44°24' E 008°53'0 0.0
2016-Apr-23 15:33N 44°24' E 008°53'0 0.0
2016-Apr-23 14:33N 44°24' E 008°53'0 0.0
2016-Apr-23 13:33N 44°24' E 008°53'0 0.0
2016-Apr-23 12:33N 44°24' E 008°53'3 3.3
2016-Apr-23 11:33N 44°23' E 008°57'1514.6
2016-Apr-23 10:34N 44°11' E 009°09'1515.1
2016-Apr-23 09:34N 43°60' E 009°23'1514.6
2016-Apr-23 08:34N 43°49' E 009°37'1414.0
2016-Apr-23 07:33N 43°38' E 009°50'1312.8
2016-Apr-23 06:33N 43°31' E 010°04'1010.0
2016-Apr-23 05:33N 43°33' E 010°17'2 1.7
2016-Apr-23 04:33N 43°34' E 010°18'0 0.0
2016-Apr-23 03:31N 43°34' E 010°18'0 0.0
2016-Apr-23 02:31N 43°34' E 010°18'0 0.0
2016-Apr-23 01:31N 43°34' E 010°18'0 0.0
2016-Apr-23 00:31N 43°34' E 010°18'0 0.0
2016-Apr-22 23:28N 43°34' E 010°18'0 0.0
2016-Apr-22 22:31N 43°34' E 010°18'0 0.0
2016-Apr-22 21:31N 43°34' E 010°18'0 0.0
2016-Apr-22 20:31N 43°34' E 010°18'0 0.0
2016-Apr-22 19:31N 43°34' E 010°18'0 0.0
2016-Apr-22 18:31N 43°34' E 010°18'0 0.0
2016-Apr-22 17:31N 43°34' E 010°18'0 0.0
2016-Apr-22 16:31N 43°34' E 010°18'0 0.0
2016-Apr-22 15:31N 43°34' E 010°18'0 0.0
2016-Apr-22 14:31N 43°34' E 010°18'0 0.0
2016-Apr-22 13:31N 43°34' E 010°18'0 0.0
2016-Apr-22 12:31N 43°34' E 010°18'0 0.0
2016-Apr-22 11:28N 43°34' E 010°18'0 0.1
2016-Apr-22 10:34N 43°34' E 010°18'8 7.5
2016-Apr-22 09:33N 43°28' E 010°12'1413.7
2016-Apr-22 08:33N 43°15' E 010°09'1413.9
2016-Apr-22 07:33N 43°01' E 010°04'7013.9
2016-Apr-22 02:33N 41°52' E 009°58'17413.2
2016-Apr-21 13:24N 38°59' E 009°31'1112.9
2016-Apr-21 12:33N 39°03' E 009°18'1211.5
2016-Apr-21 11:33N 39°09' E 009°06'4 3.9
2016-Apr-21 10:33N 39°13' E 009°04'0 0.0
2016-Apr-21 09:33N 39°13' E 009°04'0 0.0
2016-Apr-21 08:33N 39°13' E 009°04'0 0.0
2016-Apr-21 07:33N 39°13' E 009°04'0 0.0
2016-Apr-21 06:33N 39°13' E 009°04'0 0.0
2016-Apr-21 05:33N 39°13' E 009°04'0 0.0
2016-Apr-21 04:33N 39°13' E 009°04'0 0.0
2016-Apr-21 03:33N 39°13' E 009°04'3 2.8
2016-Apr-21 02:33N 39°10' E 009°05'0 0.1
2016-Apr-21 01:33N 39°10' E 009°05'0 0.0
2016-Apr-21 00:33N 39°10' E 009°05'0 0.0
2016-Apr-20 23:32N 39°10' E 009°05'0 0.0
2016-Apr-20 22:33N 39°10' E 009°05'0 0.0
2016-Apr-20 21:33N 39°10' E 009°05'0 0.1
2016-Apr-20 20:32N 39°10' E 009°05'0 0.0
2016-Apr-20 19:32N 39°10' E 009°05'0 0.0
2016-Apr-20 18:33N 39°10' E 009°05'0 0.0
2016-Apr-20 17:33N 39°10' E 009°05'0 0.0
2016-Apr-20 16:33N 39°10' E 009°05'0 0.1
2016-Apr-20 15:33N 39°10' E 009°05'0 0.0
2016-Apr-20 14:33N 39°10' E 009°05'0 0.0
2016-Apr-20 13:33N 39°10' E 009°05'0 0.0
2016-Apr-20 12:33N 39°10' E 009°05'0 0.0
2016-Apr-20 11:32N 39°10' E 009°05'0 0.0
2016-Apr-20 10:33N 39°10' E 009°05'0 0.1
2016-Apr-20 09:33N 39°10' E 009°05'0 0.1
2016-Apr-20 08:33N 39°10' E 009°05'0 0.0
2016-Apr-20 07:33N 39°10' E 009°05'0 0.0
2016-Apr-20 06:33N 39°10' E 009°05'0 0.0
2016-Apr-20 05:33N 39°10' E 009°05'0 0.0
2016-Apr-20 04:33N 39°10' E 009°05'0 0.0
2016-Apr-20 03:33N 39°10' E 009°05'0 0.0
2016-Apr-20 02:33N 39°10' E 009°05'0 0.0
2016-Apr-20 01:33N 39°10' E 009°05'0 0.0
2016-Apr-20 00:33N 39°10' E 009°05'0 0.0
2016-Apr-19 23:33N 39°10' E 009°05'0 0.0
2016-Apr-19 22:33N 39°10' E 009°05'0 0.1
2016-Apr-19 21:33N 39°10' E 009°05'0 0.1
2016-Apr-19 20:33N 39°10' E 009°05'0 0.1
2016-Apr-19 19:33N 39°10' E 009°05'0 0.1
2016-Apr-19 18:33N 39°10' E 009°05'0 0.0
2016-Apr-19 17:33N 39°10' E 009°05'0 0.0
2016-Apr-19 16:33N 39°10' E 009°05'0 0.0
2016-Apr-19 15:33N 39°10' E 009°05'0 0.0
2016-Apr-19 14:33N 39°10' E 009°05'0 0.0
2016-Apr-19 13:34N 39°10' E 009°05'0 0.3
2016-Apr-19 12:34N 39°10' E 009°05'0 0.0
2016-Apr-19 11:33N 39°10' E 009°05'0 0.0
2016-Apr-19 10:33N 39°10' E 009°05'0 0.0
2016-Apr-19 09:33N 39°10' E 009°05'0 0.0
2016-Apr-19 08:32N 39°10' E 009°05'0 0.0
2016-Apr-19 07:32N 39°10' E 009°05'0 0.0
2016-Apr-19 06:33N 39°10' E 009°05'0 0.0
2016-Apr-19 05:33N 39°10' E 009°05'0 0.0
2016-Apr-19 04:33N 39°10' E 009°05'0 0.0
2016-Apr-19 03:33N 39°10' E 009°05'0 0.0
2016-Apr-19 02:32N 39°10' E 009°05'0 0.0
2016-Apr-19 01:33N 39°10' E 009°05'0 0.0
2016-Apr-19 00:32N 39°10' E 009°05'0 0.0
2016-Apr-18 23:32N 39°10' E 009°05'0 0.0
2016-Apr-18 22:33N 39°10' E 009°05'0 0.0
2016-Apr-18 21:33N 39°10' E 009°05'0 0.1
2016-Apr-18 20:33N 39°10' E 009°05'0 0.2
2016-Apr-18 19:32N 39°10' E 009°05'0 0.0
2016-Apr-18 18:33N 39°10' E 009°05'0 0.0
2016-Apr-18 17:33N 39°10' E 009°05'0 0.0
2016-Apr-18 16:33N 39°10' E 009°05'0 0.2
2016-Apr-18 15:33N 39°10' E 009°05'0 0.0
2016-Apr-18 14:33N 39°10' E 009°05'0 0.1
2016-Apr-18 13:33N 39°10' E 009°05'0 0.0
2016-Apr-18 12:33N 39°10' E 009°05'0 0.2
2016-Apr-18 11:33N 39°10' E 009°05'1010.3
2016-Apr-18 10:33N 39°00' E 009°08'1312.5
2016-Apr-18 09:33N 38°51' E 008°56'1212.3
2016-Apr-18 08:33N 38°46' E 008°42'  
Track history (hours):
 
Tides and Currents Weather Stations Pressure Air Temp Water Temp Dewpoint Dewpoint Depression Visibility Wind Speed Wind Dir Waves Ship Positions

Purki

Last reported at 2016-Apr-28 04:33 UTC. Time now 2016-Apr-29 23:36 UTC.
Position N 39°26' W 000°18'.

Length 146 m; draft 8.7 m.

Type: Cargo ship. MMSI: 248495000.

Date/timePositionNaut miles runAvg speedWind from/ knotsBaromVisibWave heightAir tempDewpointWater temp
2016-Apr-28 04:33N 39°26' W 000°18'2 1.6
2016-Apr-28 03:33N 39°27' W 000°19'0 0.0
2016-Apr-28 02:33N 39°27' W 000°19'0 0.0
2016-Apr-28 01:33N 39°27' W 000°19'0 0.0
2016-Apr-28 00:33N 39°27' W 000°19'0 0.0
2016-Apr-27 23:33N 39°27' W 000°19'0 0.0
2016-Apr-27 22:33N 39°27' W 000°19'0 0.0
2016-Apr-27 21:33N 39°27' W 000°19'0 0.0
2016-Apr-27 20:33N 39°27' W 000°19'0 0.0
2016-Apr-27 19:33N 39°27' W 000°19'0 0.1
2016-Apr-27 18:33N 39°27' W 000°19'4 4.4
2016-Apr-27 17:32N 39°24' W 000°16'0 0.0
2016-Apr-27 09:07N 39°23' W 000°16'6 9.2
2016-Apr-27 08:29N 39°25' W 000°08'1212.8
2016-Apr-27 07:33N 39°35' W 000°00'4312.5
2016-Apr-27 04:05N 40°06' E 000°39'712.3
2016-Apr-27 03:33N 40°10' E 000°46'1312.5
2016-Apr-27 02:33N 40°17' E 000°59'1212.3
2016-Apr-27 01:33N 40°25' E 001°12'1312.3
2016-Apr-27 00:29N 40°33' E 001°26'1612.3
2016-Apr-26 23:13N 40°44' E 001°40'3512.6
2016-Apr-26 20:29N 41°12' E 002°08'7 7.5
2016-Apr-26 19:33N 41°18' E 002°09'0 0.1
2016-Apr-26 17:19N 41°18' E 002°09'0 0.0
2016-Apr-26 15:29N 41°18' E 002°09'3 3.5
2016-Apr-26 14:33N 41°21' E 002°10'0 0.0
2016-Apr-26 06:21N 41°21' E 002°10'23710.3
2016-Apr-25 07:22N 43°08' E 006°56'1213.2
2016-Apr-25 06:29N 43°16' E 007°09'1212.8
2016-Apr-25 05:30N 43°23' E 007°23'1212.6
2016-Apr-25 04:33N 43°30' E 007°36'4113.7
2016-Apr-25 01:31N 43°57' E 008°20'1414.2
2016-Apr-25 00:33N 44°05' E 008°35'1414.1
2016-Apr-24 23:33N 44°14' E 008°50'1010.2
2016-Apr-24 22:33N 44°24' E 008°55'1 1.4
2016-Apr-24 21:33N 44°24' E 008°53'0 0.0
2016-Apr-24 20:33N 44°24' E 008°53'0 0.0
2016-Apr-24 19:33N 44°24' E 008°53'0 0.0
2016-Apr-24 18:33N 44°24' E 008°53'0 0.0
2016-Apr-24 17:33N 44°24' E 008°53'0 0.0
2016-Apr-24 16:33N 44°24' E 008°53'0 0.0
2016-Apr-24 15:33N 44°24' E 008°53'0 0.0
2016-Apr-24 14:33N 44°24' E 008°53'0 0.0
2016-Apr-24 13:33N 44°24' E 008°53'0 0.0
2016-Apr-24 12:33N 44°24' E 008°53'0 0.0
2016-Apr-24 11:33N 44°24' E 008°53'0 0.0
2016-Apr-24 10:33N 44°24' E 008°53'0 0.0
2016-Apr-24 09:33N 44°24' E 008°53'0 0.0
2016-Apr-24 08:33N 44°24' E 008°53'0 0.0
2016-Apr-24 07:33N 44°24' E 008°53'0 0.0
2016-Apr-24 06:33N 44°24' E 008°53'0 0.0
2016-Apr-24 05:33N 44°24' E 008°53'0 0.0
2016-Apr-24 04:33N 44°24' E 008°53'0 0.0
2016-Apr-24 03:33N 44°24' E 008°53'0 0.0
2016-Apr-24 02:30N 44°24' E 008°53'0 0.0
2016-Apr-24 01:30N 44°24' E 008°53'0 0.0
2016-Apr-24 00:33N 44°24' E 008°53'0 0.0
2016-Apr-23 23:33N 44°24' E 008°53'0 0.0
2016-Apr-23 22:33N 44°24' E 008°53'0 0.0
2016-Apr-23 21:33N 44°24' E 008°53'0 0.0
2016-Apr-23 20:30N 44°24' E 008°53'0 0.0
2016-Apr-23 19:30N 44°24' E 008°53'0 0.0
2016-Apr-23 18:33N 44°24' E 008°53'0 0.0
2016-Apr-23 17:33N 44°24' E 008°53'0 0.0
2016-Apr-23 16:33N 44°24' E 008°53'0 0.0
2016-Apr-23 15:33N 44°24' E 008°53'0 0.0
2016-Apr-23 14:33N 44°24' E 008°53'0 0.0
2016-Apr-23 13:33N 44°24' E 008°53'0 0.0
2016-Apr-23 12:33N 44°24' E 008°53'3 3.3
2016-Apr-23 11:33N 44°23' E 008°57'1514.6
2016-Apr-23 10:34N 44°11' E 009°09'1515.1
2016-Apr-23 09:34N 43°60' E 009°23'1514.6
2016-Apr-23 08:34N 43°49' E 009°37'1414.0
2016-Apr-23 07:33N 43°38' E 009°50'1312.8
2016-Apr-23 06:33N 43°31' E 010°04'1010.0
2016-Apr-23 05:33N 43°33' E 010°17'2 1.7
2016-Apr-23 04:33N 43°34' E 010°18'0 0.0
2016-Apr-23 03:31N 43°34' E 010°18'0 0.0
2016-Apr-23 02:31N 43°34' E 010°18'0 0.0
2016-Apr-23 01:31N 43°34' E 010°18'0 0.0
2016-Apr-23 00:31N 43°34' E 010°18'0 0.0
2016-Apr-22 23:28N 43°34' E 010°18'0 0.0
2016-Apr-22 22:31N 43°34' E 010°18'0 0.0
2016-Apr-22 21:31N 43°34' E 010°18'0 0.0
2016-Apr-22 20:31N 43°34' E 010°18'0 0.0
2016-Apr-22 19:31N 43°34' E 010°18'0 0.0
2016-Apr-22 18:31N 43°34' E 010°18'0 0.0
2016-Apr-22 17:31N 43°34' E 010°18'0 0.0
2016-Apr-22 16:31N 43°34' E 010°18'0 0.0
2016-Apr-22 15:31N 43°34' E 010°18'0 0.0
2016-Apr-22 14:31N 43°34' E 010°18'0 0.0
2016-Apr-22 13:31N 43°34' E 010°18'0 0.0
2016-Apr-22 12:31N 43°34' E 010°18'0 0.0
2016-Apr-22 11:28N 43°34' E 010°18'0 0.1
2016-Apr-22 10:34N 43°34' E 010°18'8 7.5
2016-Apr-22 09:33N 43°28' E 010°12'1413.7
2016-Apr-22 08:33N 43°15' E 010°09'1413.9
2016-Apr-22 07:33N 43°01' E 010°04'7013.9
2016-Apr-22 02:33N 41°52' E 009°58'17413.2
2016-Apr-21 13:24N 38°59' E 009°31'1112.9
2016-Apr-21 12:33N 39°03' E 009°18'1211.5
2016-Apr-21 11:33N 39°09' E 009°06'4 3.9
2016-Apr-21 10:33N 39°13' E 009°04'0 0.0
2016-Apr-21 09:33N 39°13' E 009°04'0 0.0
2016-Apr-21 08:33N 39°13' E 009°04'0 0.0
2016-Apr-21 07:33N 39°13' E 009°04'0 0.0
2016-Apr-21 06:33N 39°13' E 009°04'0 0.0
2016-Apr-21 05:33N 39°13' E 009°04'0 0.0
2016-Apr-21 04:33N 39°13' E 009°04'0 0.0
2016-Apr-21 03:33N 39°13' E 009°04'3 2.8
2016-Apr-21 02:33N 39°10' E 009°05'0 0.1
2016-Apr-21 01:33N 39°10' E 009°05'0 0.0
2016-Apr-21 00:33N 39°10' E 009°05'0 0.0
2016-Apr-20 23:32N 39°10' E 009°05'0 0.0
2016-Apr-20 22:33N 39°10' E 009°05'0 0.0
2016-Apr-20 21:33N 39°10' E 009°05'0 0.1
2016-Apr-20 20:32N 39°10' E 009°05'0 0.0
2016-Apr-20 19:32N 39°10' E 009°05'0 0.0
2016-Apr-20 18:33N 39°10' E 009°05'0 0.0
2016-Apr-20 17:33N 39°10' E 009°05'0 0.0
2016-Apr-20 16:33N 39°10' E 009°05'0 0.1
2016-Apr-20 15:33N 39°10' E 009°05'0 0.0
2016-Apr-20 14:33N 39°10' E 009°05'0 0.0
2016-Apr-20 13:33N 39°10' E 009°05'0 0.0
2016-Apr-20 12:33N 39°10' E 009°05'0 0.0
2016-Apr-20 11:32N 39°10' E 009°05'0 0.0
2016-Apr-20 10:33N 39°10' E 009°05'0 0.1
2016-Apr-20 09:33N 39°10' E 009°05'0 0.1
2016-Apr-20 08:33N 39°10' E 009°05'0 0.0
2016-Apr-20 07:33N 39°10' E 009°05'0 0.0
2016-Apr-20 06:33N 39°10' E 009°05'0 0.0
2016-Apr-20 05:33N 39°10' E 009°05'0 0.0
2016-Apr-20 04:33N 39°10' E 009°05'0 0.0
2016-Apr-20 03:33N 39°10' E 009°05'0 0.0
2016-Apr-20 02:33N 39°10' E 009°05'0 0.0
2016-Apr-20 01:33N 39°10' E 009°05'0 0.0
2016-Apr-20 00:33N 39°10' E 009°05'0 0.0
2016-Apr-19 23:33N 39°10' E 009°05'0 0.0
2016-Apr-19 22:33N 39°10' E 009°05'0 0.1
2016-Apr-19 21:33N 39°10' E 009°05'0 0.1
2016-Apr-19 20:33N 39°10' E 009°05'0 0.1
2016-Apr-19 19:33N 39°10' E 009°05'0 0.1
2016-Apr-19 18:33N 39°10' E 009°05'0 0.0
2016-Apr-19 17:33N 39°10' E 009°05'0 0.0
2016-Apr-19 16:33N 39°10' E 009°05'0 0.0
2016-Apr-19 15:33N 39°10' E 009°05'0 0.0
2016-Apr-19 14:33N 39°10' E 009°05'0 0.0
2016-Apr-19 13:34N 39°10' E 009°05'0 0.3
2016-Apr-19 12:34N 39°10' E 009°05'0 0.0
2016-Apr-19 11:33N 39°10' E 009°05'0 0.0
2016-Apr-19 10:33N 39°10' E 009°05'0 0.0
2016-Apr-19 09:33N 39°10' E 009°05'0 0.0
2016-Apr-19 08:32N 39°10' E 009°05'0 0.0
2016-Apr-19 07:32N 39°10' E 009°05'0 0.0
2016-Apr-19 06:33N 39°10' E 009°05'0 0.0
2016-Apr-19 05:33N 39°10' E 009°05'0 0.0
2016-Apr-19 04:33N 39°10' E 009°05'0 0.0
2016-Apr-19 03:33N 39°10' E 009°05'0 0.0
2016-Apr-19 02:32N 39°10' E 009°05'0 0.0
2016-Apr-19 01:33N 39°10' E 009°05'0 0.0
2016-Apr-19 00:32N 39°10' E 009°05'0 0.0
2016-Apr-18 23:32N 39°10' E 009°05'0 0.0
2016-Apr-18 22:33N 39°10' E 009°05'0 0.0
2016-Apr-18 21:33N 39°10' E 009°05'0 0.1
2016-Apr-18 20:33N 39°10' E 009°05'0 0.2
2016-Apr-18 19:32N 39°10' E 009°05'0 0.0
2016-Apr-18 18:33N 39°10' E 009°05'0 0.0
2016-Apr-18 17:33N 39°10' E 009°05'0 0.0
2016-Apr-18 16:33N 39°10' E 009°05'0 0.2
2016-Apr-18 15:33N 39°10' E 009°05'0 0.0
2016-Apr-18 14:33N 39°10' E 009°05'0 0.1
2016-Apr-18 13:33N 39°10' E 009°05'0 0.0
2016-Apr-18 12:33N 39°10' E 009°05'0 0.2
2016-Apr-18 11:33N 39°10' E 009°05'1010.3
2016-Apr-18 10:33N 39°00' E 009°08'1312.5
2016-Apr-18 09:33N 38°51' E 008°56'1212.3
2016-Apr-18 08:33N 38°46' E 008°42'  

Dump ship's entire track history